createdAt,value
2018-08-12T00:01:16.545Z,40.81
2018-08-12T00:03:44.915Z,40.84
2018-08-12T00:06:13.399Z,40.73
2018-08-12T00:08:44.899Z,40.87
2018-08-12T00:11:13.942Z,41.37
2018-08-12T00:13:42.471Z,40.68
2018-08-12T00:16:12.263Z,40.62
2018-08-12T00:18:41.181Z,40.49
2018-08-12T00:21:09.718Z,40.37
2018-08-12T00:23:38.562Z,40.69
2018-08-12T00:26:07.553Z,40.09
2018-08-12T00:28:36.263Z,40.02
2018-08-12T00:31:05.854Z,40.61
2018-08-12T00:33:34.392Z,40.60
2018-08-12T00:36:03.122Z,40.92
2018-08-12T00:38:31.756Z,41.00
2018-08-12T00:41:00.429Z,41.75
2018-08-12T00:43:28.975Z,41.91
2018-08-12T00:45:58.275Z,41.92
2018-08-12T00:48:31.971Z,42.61
2018-08-12T00:51:00.776Z,41.89
2018-08-12T00:53:29.414Z,41.94
2018-08-12T00:55:58.984Z,42.39
2018-08-12T00:58:32.602Z,42.95
2018-08-12T01:01:01.598Z,43.30
2018-08-12T01:03:30.410Z,42.71
2018-08-12T01:06:00.007Z,42.89
2018-08-12T01:08:37.941Z,42.93
2018-08-12T01:11:06.686Z,43.37
2018-08-12T01:13:35.390Z,43.34
2018-08-12T01:16:06.069Z,42.88
2018-08-12T01:18:34.868Z,43.35
2018-08-12T01:21:04.015Z,43.12
2018-08-12T01:23:32.757Z,43.14
2018-08-12T01:26:02.429Z,43.20
2018-08-12T01:28:32.117Z,43.11
2018-08-12T01:31:07.994Z,43.30
2018-08-12T01:33:37.511Z,43.44
2018-08-12T01:36:06.365Z,43.16
2018-08-12T01:38:35.458Z,43.19
2018-08-12T01:41:04.654Z,43.21
2018-08-12T01:43:33.416Z,43.14
2018-08-12T01:46:02.976Z,43.44
2018-08-12T01:48:31.715Z,43.22
2018-08-12T01:51:00.679Z,43.53
2018-08-12T01:53:30.261Z,43.35
2018-08-12T01:55:59.156Z,43.04
2018-08-12T01:58:33.224Z,43.98
2018-08-12T02:01:01.925Z,43.27
2018-08-12T02:03:30.555Z,43.65
2018-08-12T02:05:59.276Z,43.13
2018-08-12T02:08:28.631Z,43.65
2018-08-12T02:10:57.421Z,43.57
2018-08-12T02:13:26.549Z,43.37
2018-08-12T02:15:55.255Z,43.81
2018-08-12T02:18:24.066Z,43.28
2018-08-12T02:20:52.807Z,43.67
2018-08-12T02:23:21.639Z,43.56
2018-08-12T02:25:51.122Z,43.58
2018-08-12T02:28:24.889Z,43.77
2018-08-12T02:30:53.551Z,43.88
2018-08-12T02:33:22.213Z,44.00
2018-08-12T02:35:50.966Z,43.82
2018-08-12T02:38:38.305Z,42.60
2018-08-12T02:41:08.003Z,43.21
2018-08-12T02:43:36.640Z,43.26
2018-08-12T02:46:06.234Z,42.05
2018-08-12T02:48:36.524Z,41.52
2018-08-12T02:51:05.245Z,40.94
2018-08-12T02:53:34.719Z,40.94
2018-08-12T02:56:03.537Z,41.65
2018-08-12T02:58:32.092Z,41.74
2018-08-12T03:01:01.597Z,41.91
2018-08-12T03:03:30.268Z,42.24
2018-08-12T03:05:58.875Z,43.35
2018-08-12T03:08:28.116Z,44.63
2018-08-12T03:10:57.443Z,45.79
2018-08-12T03:13:26.422Z,46.56
2018-08-12T03:15:55.159Z,47.57
2018-08-12T03:21:22.361Z,49.06
2018-08-12T03:23:51.921Z,49.21
2018-08-12T03:26:20.999Z,50.08
2018-08-12T03:31:52.023Z,50.60
2018-08-12T03:34:21.016Z,51.19
2018-08-12T03:36:49.697Z,51.55
2018-08-12T03:42:20.715Z,52.67
2018-08-12T03:44:49.343Z,52.91
2018-08-12T03:47:18.479Z,53.79
2018-08-12T03:52:48.919Z,54.61
2018-08-12T03:55:18.014Z,55.06
2018-08-12T03:57:46.726Z,54.99
2018-08-12T04:00:18.129Z,54.80
2018-08-12T04:02:48.143Z,55.05
2018-08-12T04:05:19.452Z,54.15
2018-08-12T04:07:48.231Z,54.06
2018-08-12T04:10:17.043Z,54.13
2018-08-12T04:12:45.749Z,54.18
2018-08-12T04:15:15.031Z,54.23
2018-08-12T04:17:43.722Z,54.60
2018-08-12T04:20:13.085Z,54.68
2018-08-12T04:22:42.543Z,54.27
2018-08-12T04:25:11.304Z,54.91
2018-08-12T04:27:40.025Z,54.01
2018-08-12T04:30:09.777Z,53.76
2018-08-12T04:32:38.395Z,53.70
2018-08-12T04:35:07.997Z,53.67
2018-08-12T04:37:36.754Z,53.57
2018-08-12T04:40:08.089Z,53.54
2018-08-12T04:42:37.417Z,52.93
2018-08-12T04:45:06.409Z,53.23
2018-08-12T04:47:36.070Z,52.92
2018-08-12T04:50:05.523Z,52.95
2018-08-12T04:52:34.374Z,53.11
2018-08-12T04:55:04.998Z,53.44
2018-08-12T04:57:34.310Z,52.84
2018-08-12T05:00:12.302Z,53.27
2018-08-12T05:02:41.924Z,52.21
2018-08-12T05:05:11.492Z,51.50
2018-08-12T05:07:40.345Z,50.96
2018-08-12T05:10:09.232Z,50.83
2018-08-12T05:12:37.914Z,51.06
2018-08-12T05:15:08.927Z,51.12
2018-08-12T05:17:37.634Z,50.45
2018-08-12T05:20:06.805Z,50.51
2018-08-12T05:22:36.734Z,50.68
2018-08-12T05:25:05.730Z,50.63
2018-08-12T05:27:34.546Z,50.84
2018-08-12T05:30:03.254Z,49.77
2018-08-12T05:32:31.792Z,49.87
2018-08-12T05:35:00.835Z,49.90
2018-08-12T05:37:29.468Z,49.78
2018-08-12T05:40:08.624Z,49.12
2018-08-12T05:42:37.479Z,49.18
2018-08-12T05:45:07.457Z,49.02
2018-08-12T05:47:35.970Z,49.20
2018-08-12T05:50:18.711Z,48.87
2018-08-12T05:52:47.627Z,48.72
2018-08-12T05:55:16.838Z,48.49
2018-08-12T05:57:47.575Z,48.31
2018-08-12T06:00:18.598Z,47.97
2018-08-12T06:02:49.512Z,47.91
2018-08-12T06:05:18.145Z,47.34
2018-08-12T06:07:47.716Z,47.38
2018-08-12T06:10:16.827Z,47.54
2018-08-12T06:12:46.453Z,46.82
2018-08-12T06:15:17.742Z,47.22
2018-08-12T06:17:46.386Z,47.01
2018-08-12T06:20:15.495Z,46.78
2018-08-12T06:22:43.981Z,46.51
2018-08-12T06:25:17.329Z,47.01
2018-08-12T06:27:45.721Z,46.62
2018-08-12T06:30:14.898Z,47.22
2018-08-12T06:32:43.400Z,47.55
2018-08-12T06:35:13.954Z,46.39
2018-08-12T06:37:45.042Z,46.26
2018-08-12T06:40:14.581Z,46.46
2018-08-12T06:42:44.413Z,45.66
2018-08-12T06:45:14.324Z,45.70
2018-08-12T06:47:43.672Z,45.55
2018-08-12T06:50:12.216Z,45.42
2018-08-12T06:52:41.208Z,44.88
2018-08-12T06:55:11.803Z,44.51
2018-08-12T06:57:41.071Z,44.09
2018-08-12T07:00:12.216Z,44.08
2018-08-12T07:02:40.631Z,44.22
2018-08-12T07:05:10.413Z,43.94
2018-08-12T07:07:39.749Z,44.14
2018-08-12T07:10:14.977Z,44.00
2018-08-12T07:12:43.969Z,44.21
2018-08-12T07:15:16.774Z,43.38
2018-08-12T07:17:46.265Z,43.65
2018-08-12T07:20:15.258Z,43.51
2018-08-12T07:22:44.369Z,43.16
2018-08-12T07:25:14.955Z,43.19
2018-08-12T07:27:45.596Z,43.03
2018-08-12T07:30:18.102Z,42.16
2018-08-12T07:32:46.602Z,42.40
2018-08-12T07:35:15.548Z,42.58
2018-08-12T07:37:44.193Z,42.61
2018-08-12T07:40:19.808Z,41.30
2018-08-12T07:42:49.175Z,41.72
2018-08-12T07:45:17.657Z,40.44
2018-08-12T07:47:46.387Z,39.87
2018-08-12T07:50:14.923Z,40.02
2018-08-12T07:52:44.527Z,40.10
2018-08-12T07:55:13.951Z,39.69
2018-08-12T07:57:43.399Z,39.21
2018-08-12T08:00:15.729Z,38.79
2018-08-12T08:02:44.399Z,37.91
2018-08-12T08:05:13.207Z,38.07
2018-08-12T08:07:42.232Z,37.33
2018-08-12T08:10:12.821Z,36.75
2018-08-12T08:12:41.757Z,36.38
2018-08-12T08:15:13.617Z,36.76
2018-08-12T08:17:42.742Z,37.01
2018-08-12T08:20:12.609Z,36.56
2018-08-12T08:22:41.677Z,36.56
2018-08-12T08:25:10.923Z,35.92
2018-08-12T08:27:39.787Z,35.79
2018-08-12T08:30:27.169Z,35.92
2018-08-12T08:32:56.254Z,35.76
2018-08-12T08:35:24.729Z,35.95
2018-08-12T08:37:53.340Z,36.09
2018-08-12T08:40:22.214Z,36.49
2018-08-12T08:42:51.529Z,35.66
2018-08-12T08:45:21.715Z,36.46
2018-08-12T08:47:51.642Z,36.36
2018-08-12T08:50:21.355Z,36.24
2018-08-12T08:52:50.091Z,35.86
2018-08-12T08:55:18.823Z,36.14
2018-08-12T08:57:48.448Z,36.26
2018-08-12T09:00:19.976Z,36.99
2018-08-12T09:02:51.819Z,35.50
2018-08-12T09:05:20.589Z,34.00
2018-08-12T09:07:49.645Z,34.27
2018-08-12T09:10:19.126Z,34.41
2018-08-12T09:12:47.975Z,33.89
2018-08-12T09:15:18.189Z,33.98
2018-08-12T09:17:47.501Z,33.66
2018-08-12T09:20:19.414Z,33.37
2018-08-12T09:22:48.044Z,33.40
2018-08-12T09:25:16.901Z,33.04
2018-08-12T09:27:45.421Z,32.45
2018-08-12T09:30:20.241Z,32.05
2018-08-12T09:32:49.247Z,32.56
2018-08-12T09:35:17.873Z,33.65
2018-08-12T09:37:46.463Z,32.41
2018-08-12T09:40:17.055Z,31.83
2018-08-12T09:42:46.518Z,32.36
2018-08-12T09:45:17.244Z,31.72
2018-08-12T09:47:46.071Z,31.67
2018-08-12T09:50:16.912Z,31.39
2018-08-12T09:52:46.013Z,30.95
2018-08-12T09:55:15.217Z,30.38
2018-08-12T09:57:43.783Z,30.22
2018-08-12T10:00:26.082Z,30.25
2018-08-12T10:02:55.700Z,31.04
2018-08-12T10:05:24.569Z,29.49
2018-08-12T10:07:54.840Z,30.85
2018-08-12T10:10:23.371Z,30.06
2018-08-12T10:12:52.112Z,29.41
2018-08-12T10:15:20.605Z,30.01
2018-08-12T10:17:53.942Z,30.03
2018-08-12T10:20:22.653Z,29.26
2018-08-12T10:22:51.698Z,29.41
2018-08-12T10:25:20.557Z,29.93
2018-08-12T10:27:49.164Z,30.49
2018-08-12T10:30:17.729Z,29.67
2018-08-12T10:32:46.833Z,28.41
2018-08-12T10:35:16.724Z,27.92
2018-08-12T10:37:46.277Z,28.36
2018-08-12T10:40:17.391Z,27.88
2018-08-12T10:42:47.349Z,27.77
2018-08-12T10:45:16.159Z,26.98
2018-08-12T10:47:44.994Z,27.97
2018-08-12T10:50:16.042Z,26.93
2018-08-12T10:52:45.608Z,27.71
2018-08-12T10:55:15.860Z,26.77
2018-08-12T10:57:44.915Z,26.79
2018-08-12T11:00:20.487Z,26.68
2018-08-12T11:02:49.320Z,25.79
2018-08-12T11:05:18.114Z,25.92
2018-08-12T11:07:49.437Z,25.29
2018-08-12T11:10:18.012Z,25.57
2018-08-12T11:12:46.667Z,25.53
2018-08-12T11:15:15.494Z,25.13
2018-08-12T11:17:44.074Z,24.24
2018-08-12T11:20:13.112Z,23.83
2018-08-12T11:22:41.867Z,24.49
2018-08-12T11:25:11.620Z,23.63
2018-08-12T11:27:40.144Z,23.94
2018-08-12T11:30:27.333Z,22.88
2018-08-12T11:32:55.973Z,21.68
2018-08-12T11:35:25.039Z,22.07
2018-08-12T11:37:53.590Z,21.42
2018-08-12T11:40:22.285Z,21.95
2018-08-12T11:42:51.063Z,21.73
2018-08-12T11:45:19.979Z,22.24
2018-08-12T11:47:49.344Z,20.96
2018-08-12T11:50:18.354Z,21.86
2018-08-12T11:52:47.621Z,21.75
2018-08-12T11:55:19.643Z,20.43
2018-08-12T11:57:48.278Z,19.80
2018-08-12T12:00:17.225Z,20.14
2018-08-12T12:02:46.420Z,20.42
2018-08-12T12:05:15.153Z,18.36
2018-08-12T12:07:43.077Z,19.05
2018-08-12T12:10:13.615Z,19.49
2018-08-12T12:12:42.563Z,18.36
2018-08-12T12:15:11.021Z,19.08
2018-08-12T12:17:38.841Z,19.50
2018-08-12T12:20:07.711Z,19.26
2018-08-12T12:22:36.995Z,18.65
2018-08-12T12:25:05.397Z,18.80
2018-08-12T12:27:33.145Z,18.74
2018-08-12T12:30:00.911Z,17.75
2018-08-12T12:32:28.613Z,19.08
2018-08-12T12:34:56.389Z,18.79
2018-08-12T12:37:24.975Z,18.23
2018-08-12T12:39:52.659Z,16.87
2018-08-12T12:42:20.544Z,17.30
2018-08-12T12:44:48.512Z,16.50
2018-08-12T12:47:16.506Z,16.12
2018-08-12T12:49:44.304Z,15.92
2018-08-12T12:52:11.978Z,17.94
2018-08-12T12:54:39.670Z,16.53
2018-08-12T12:57:07.326Z,16.72
2018-08-12T12:59:35.206Z,16.61
2018-08-12T13:02:02.918Z,17.62
2018-08-12T13:04:30.798Z,15.30
2018-08-12T13:06:58.788Z,16.18
2018-08-12T13:09:26.833Z,15.80
2018-08-12T13:11:54.798Z,16.39
2018-08-12T13:14:22.632Z,16.37
2018-08-12T13:16:50.420Z,16.21
2018-08-12T13:19:18.112Z,16.41
2018-08-12T13:21:45.882Z,15.71
2018-08-12T13:24:13.937Z,15.64
2018-08-12T13:26:41.652Z,16.73
2018-08-12T13:29:09.492Z,16.20
2018-08-12T13:31:37.189Z,16.30
2018-08-12T13:34:04.916Z,16.23
2018-08-12T13:36:33.251Z,17.15
2018-08-12T13:39:01.492Z,17.75
2018-08-12T13:41:30.570Z,16.14
2018-08-12T13:43:58.304Z,16.91
2018-08-12T13:46:25.971Z,17.10
2018-08-12T13:48:53.758Z,16.87
2018-08-12T13:51:21.593Z,16.59
2018-08-12T13:53:49.418Z,18.06
2018-08-12T13:56:17.210Z,16.82
2018-08-12T13:58:50.010Z,16.84
2018-08-12T14:01:17.818Z,16.82
2018-08-12T14:03:45.684Z,18.04
2018-08-12T14:06:13.443Z,16.92
2018-08-12T14:08:41.169Z,17.63
2018-08-12T14:11:09.019Z,18.05
2018-08-12T14:13:36.932Z,18.04
2018-08-12T14:16:05.075Z,16.54
2018-08-12T14:18:33.160Z,17.82
2018-08-12T14:21:00.877Z,17.66
2018-08-12T14:23:28.500Z,17.31
2018-08-12T14:25:56.162Z,18.07
2018-08-12T14:28:24.097Z,18.20
2018-08-12T14:30:51.741Z,17.77
2018-08-12T14:33:19.355Z,18.99
2018-08-12T14:35:47.256Z,17.32
2018-08-12T14:38:14.982Z,18.95
2018-08-12T14:40:42.821Z,17.84
2018-08-12T14:43:10.532Z,17.63
2018-08-12T14:45:38.711Z,18.44
2018-08-12T14:48:11.418Z,17.50
2018-08-12T14:50:39.124Z,18.42
2018-08-12T14:53:06.899Z,17.71
2018-08-12T14:55:34.705Z,19.05
2018-08-12T14:58:12.812Z,18.35
2018-08-12T15:00:41.641Z,18.78
2018-08-12T15:03:10.129Z,18.89
2018-08-12T15:05:38.727Z,19.54
2018-08-12T15:08:12.274Z,18.74
2018-08-12T15:10:41.084Z,19.79
2018-08-12T15:13:09.636Z,19.61
2018-08-12T15:15:38.121Z,18.78
2018-08-12T15:18:06.776Z,19.41
2018-08-12T15:20:35.263Z,18.67
2018-08-12T15:23:04.068Z,19.42
2018-08-12T15:25:32.588Z,19.15
2018-08-12T15:28:01.242Z,20.12
2018-08-12T15:30:29.806Z,19.32
2018-08-12T15:32:58.795Z,19.19
2018-08-12T15:35:27.373Z,19.86
2018-08-12T15:37:56.075Z,19.08
2018-08-12T15:40:24.761Z,19.45
2018-08-12T15:42:53.344Z,20.07
2018-08-12T15:45:22.806Z,20.28
2018-08-12T15:47:51.215Z,19.54
2018-08-12T15:50:19.736Z,19.33
2018-08-12T15:52:48.407Z,19.63
2018-08-12T15:55:17.178Z,20.02
2018-08-12T15:57:46.056Z,19.59
2018-08-12T16:00:18.515Z,19.38
2018-08-12T16:02:47.631Z,19.79
2018-08-12T16:05:16.428Z,19.34
2018-08-12T16:07:46.129Z,20.24
2018-08-12T16:10:17.952Z,20.35
2018-08-12T16:12:47.181Z,20.50
2018-08-12T16:15:15.859Z,20.77
2018-08-12T16:17:45.170Z,20.51
2018-08-12T16:20:13.882Z,19.90
2018-08-12T16:22:42.639Z,19.29
2018-08-12T16:25:14.772Z,19.32
2018-08-12T16:27:43.943Z,19.52
2018-08-12T16:30:14.025Z,20.38
2018-08-12T16:32:42.647Z,20.43
2018-08-12T16:35:12.744Z,20.68
2018-08-12T16:37:41.841Z,20.75
2018-08-12T16:40:12.408Z,21.84
2018-08-12T16:42:41.248Z,21.21
2018-08-12T16:45:11.077Z,20.37
2018-08-12T16:47:40.589Z,19.74
2018-08-12T16:50:14.322Z,20.10
2018-08-12T16:52:43.874Z,20.49
2018-08-12T16:55:14.193Z,19.65
2018-08-12T16:57:43.595Z,20.09
2018-08-12T17:00:22.660Z,20.01
2018-08-12T17:02:51.449Z,20.73
2018-08-12T17:05:21.126Z,20.37
2018-08-12T17:07:49.843Z,21.52
2018-08-12T17:10:19.161Z,20.37
2018-08-12T17:12:47.926Z,21.37
2018-08-12T17:15:18.281Z,22.10
2018-08-12T17:17:47.597Z,22.94
2018-08-12T17:20:20.846Z,22.21
2018-08-12T17:22:49.638Z,23.02
2018-08-12T17:25:18.125Z,23.01
2018-08-12T17:27:47.114Z,23.58
2018-08-12T17:30:21.124Z,23.56
2018-08-12T17:32:50.046Z,22.65
2018-08-12T17:35:19.868Z,22.30
2018-08-12T17:37:49.607Z,22.98
2018-08-12T17:40:19.842Z,22.73
2018-08-12T17:42:48.708Z,23.53
2018-08-12T17:45:17.187Z,23.08
2018-08-12T17:47:45.692Z,23.21
2018-08-12T17:50:19.418Z,23.44
2018-08-12T17:52:48.074Z,23.08
2018-08-12T17:55:16.810Z,24.11
2018-08-12T17:57:45.846Z,24.91
2018-08-12T18:00:15.778Z,24.25
2018-08-12T18:02:44.258Z,23.79
2018-08-12T18:05:12.871Z,24.90
2018-08-12T18:07:42.305Z,24.52
2018-08-12T18:10:16.067Z,24.24
2018-08-12T18:12:45.748Z,24.39
2018-08-12T18:15:14.409Z,24.58
2018-08-12T18:17:43.255Z,24.53
2018-08-12T18:20:12.081Z,24.57
2018-08-12T18:22:40.683Z,25.23
2018-08-12T18:25:10.699Z,24.89
2018-08-12T18:27:39.287Z,24.32
2018-08-12T18:30:15.010Z,25.06
2018-08-12T18:32:43.647Z,24.47
2018-08-12T18:35:12.885Z,24.10
2018-08-12T18:37:41.882Z,24.25
2018-08-12T18:40:11.595Z,24.71
2018-08-12T18:42:40.102Z,25.78
2018-08-12T18:45:08.757Z,25.60
2018-08-12T18:47:37.207Z,25.90
2018-08-12T18:50:07.301Z,25.85
2018-08-12T18:52:36.103Z,24.70
2018-08-12T18:55:05.695Z,24.94
2018-08-12T18:57:34.363Z,25.00
2018-08-12T19:00:02.791Z,25.74
2018-08-12T19:02:31.604Z,25.49
2018-08-12T19:05:00.379Z,24.92
2018-08-12T19:07:29.152Z,25.85
2018-08-12T19:09:57.924Z,25.45
2018-08-12T19:12:26.363Z,25.16
2018-08-12T19:14:54.878Z,25.86
2018-08-12T19:17:23.641Z,26.12
2018-08-12T19:19:52.363Z,26.61
2018-08-12T19:22:20.886Z,25.63
2018-08-12T19:24:49.625Z,25.47
2018-08-12T19:27:18.358Z,25.40
2018-08-12T19:29:47.211Z,25.65
2018-08-12T19:32:15.851Z,26.01
2018-08-12T19:34:44.584Z,25.13
2018-08-12T19:37:13.175Z,25.54
2018-08-12T19:39:41.860Z,25.58
2018-08-12T19:42:10.712Z,24.89
2018-08-12T19:44:39.154Z,25.15
2018-08-12T19:47:08.123Z,25.08
2018-08-12T19:49:36.742Z,25.11
2018-08-12T19:52:05.489Z,25.32
2018-08-12T19:54:34.035Z,25.62
2018-08-12T19:57:02.832Z,25.80
2018-08-12T19:59:31.665Z,25.58
2018-08-12T20:02:02.008Z,25.91
2018-08-12T20:04:30.603Z,26.07
2018-08-12T20:06:59.271Z,26.24
2018-08-12T20:12:21.917Z,26.17
2018-08-12T20:14:50.483Z,25.48
2018-08-12T20:17:18.973Z,26.47
2018-08-12T20:19:47.526Z,26.15
2018-08-12T20:22:16.721Z,25.99
2018-08-12T20:24:45.737Z,26.51
2018-08-12T20:27:14.323Z,25.85
2018-08-12T20:29:43.305Z,26.55
2018-08-12T20:32:11.711Z,26.84
2018-08-12T20:34:40.377Z,26.28
2018-08-12T20:37:08.939Z,26.98
2018-08-12T20:39:37.514Z,26.79
2018-08-12T20:42:05.895Z,26.55
2018-08-12T20:44:34.360Z,27.39
2018-08-12T20:47:03.004Z,26.93
2018-08-12T20:49:31.517Z,27.52
2018-08-12T20:52:00.059Z,27.83
2018-08-12T20:54:28.486Z,27.72
2018-08-12T20:56:56.921Z,27.68
2018-08-12T20:59:25.582Z,27.57
2018-08-12T21:01:54.085Z,27.50
2018-08-12T21:04:22.633Z,26.96
2018-08-12T21:06:51.557Z,26.72
2018-08-12T21:09:20.044Z,27.43
2018-08-12T21:11:48.519Z,27.10
2018-08-12T21:14:16.923Z,27.87
2018-08-12T21:16:45.455Z,27.62
2018-08-12T21:19:14.308Z,27.69
2018-08-12T21:21:43.543Z,27.02
2018-08-12T21:24:11.947Z,27.30
2018-08-12T21:26:40.426Z,27.41
2018-08-12T21:29:09.278Z,27.13
2018-08-12T21:31:37.676Z,27.23
2018-08-12T21:34:06.181Z,27.15
2018-08-12T21:36:34.605Z,27.45
2018-08-12T21:39:03.381Z,27.61
2018-08-12T21:41:31.934Z,27.06
2018-08-12T21:44:00.353Z,27.16
2018-08-12T21:46:28.774Z,26.59
2018-08-12T21:48:58.443Z,27.14
2018-08-12T21:51:27.566Z,27.17
2018-08-12T21:53:56.597Z,27.13
2018-08-12T21:56:26.157Z,26.57
2018-08-12T21:58:54.688Z,27.36
2018-08-12T22:01:23.668Z,26.68
2018-08-12T22:03:52.122Z,27.43
2018-08-12T22:06:20.673Z,27.30
2018-08-12T22:08:49.154Z,27.57
2018-08-12T22:11:17.666Z,27.79
2018-08-12T22:13:46.385Z,27.60
2018-08-12T22:16:14.862Z,27.33
2018-08-12T22:18:43.471Z,27.91
2018-08-12T22:21:11.952Z,27.10
2018-08-12T22:23:40.656Z,27.88
2018-08-12T22:26:09.733Z,27.53
2018-08-12T22:28:38.221Z,28.20
2018-08-12T22:31:06.809Z,27.42
2018-08-12T22:33:35.623Z,28.05
2018-08-12T22:36:04.516Z,28.02
2018-08-12T22:38:32.995Z,27.34
2018-08-12T22:41:01.371Z,27.83
2018-08-12T22:43:29.912Z,28.14
2018-08-12T22:45:58.999Z,28.33
2018-08-12T22:48:36.925Z,28.08
2018-08-12T22:51:05.667Z,28.21
2018-08-12T22:53:34.071Z,28.51
2018-08-12T22:56:02.549Z,28.77
2018-08-12T22:58:31.057Z,28.63
2018-08-12T23:00:59.597Z,28.78
2018-08-12T23:03:28.127Z,29.23
2018-08-12T23:05:56.558Z,29.48
2018-08-12T23:08:25.319Z,28.98
2018-08-12T23:10:53.786Z,29.17
2018-08-12T23:13:22.212Z,29.05
2018-08-12T23:16:13.092Z,28.71
2018-08-12T23:18:41.738Z,29.82
2018-08-12T23:21:15.318Z,30.26
2018-08-12T23:23:44.966Z,30.70
2018-08-12T23:26:14.677Z,30.86
2018-08-12T23:28:43.316Z,31.26
2018-08-12T23:31:11.790Z,31.96
2018-08-12T23:33:40.349Z,31.56
2018-08-12T23:36:09.606Z,32.40
2018-08-12T23:38:38.645Z,32.50
2018-08-12T23:41:08.346Z,32.63
2018-08-12T23:43:37.377Z,32.43
2018-08-12T23:46:07.704Z,33.18
2018-08-12T23:48:37.223Z,32.71
2018-08-12T23:51:06.162Z,33.44
2018-08-12T23:53:35.130Z,33.40
2018-08-12T23:56:03.851Z,33.47
